createdAt,value
2022-07-29T00:01:19.499Z,1.95
2022-07-29T00:03:50.436Z,1.70
2022-07-29T00:06:22.461Z,1.87
2022-07-29T00:08:51.940Z,1.80
2022-07-29T00:11:21.599Z,1.70
2022-07-29T00:13:51.272Z,2.22
2022-07-29T00:16:20.849Z,2.10
2022-07-29T00:18:50.287Z,1.95
2022-07-29T00:21:19.775Z,2.67
2022-07-29T00:23:49.281Z,1.80
2022-07-29T00:26:18.784Z,1.80
2022-07-29T00:28:48.394Z,2.20
2022-07-29T00:31:17.981Z,1.80
2022-07-29T00:33:47.480Z,1.62
2022-07-29T00:36:16.955Z,2.02
2022-07-29T00:38:47.503Z,1.90
2022-07-29T00:41:17.892Z,1.90
2022-07-29T00:43:48.204Z,2.02
2022-07-29T00:46:17.927Z,2.05
2022-07-29T00:48:47.461Z,2.00
2022-07-29T00:51:17.355Z,1.65
2022-07-29T00:53:48.885Z,2.05
2022-07-29T00:56:18.500Z,1.90
2022-07-29T00:58:50.370Z,1.57
2022-07-29T01:01:19.990Z,1.67
2022-07-29T01:03:49.461Z,2.00
2022-07-29T01:06:21.379Z,2.10
2022-07-29T01:08:52.447Z,1.80
2022-07-29T01:11:23.048Z,1.70
2022-07-29T01:13:53.932Z,1.85
2022-07-29T01:16:34.657Z,1.95
2022-07-29T01:19:07.358Z,2.40
2022-07-29T01:24:27.202Z,1.70
2022-07-29T01:26:59.785Z,2.20
2022-07-29T01:29:38.965Z,1.90
2022-07-29T01:32:27.840Z,1.82
2022-07-29T01:34:59.382Z,2.25
2022-07-29T01:37:34.717Z,1.85
2022-07-29T01:40:07.056Z,1.80
2022-07-29T01:42:42.750Z,1.60
2022-07-29T01:45:18.265Z,1.72
2022-07-29T01:47:56.630Z,1.77
2022-07-29T01:50:38.366Z,1.70
2022-07-29T01:53:10.697Z,1.50
2022-07-29T01:55:43.282Z,1.40
2022-07-29T01:58:14.618Z,1.80
2022-07-29T02:00:47.315Z,1.70
2022-07-29T02:03:19.902Z,1.50
2022-07-29T02:05:52.455Z,2.02
2022-07-29T02:08:23.577Z,1.80
2022-07-29T02:10:55.188Z,1.47
2022-07-29T02:13:27.258Z,1.90
2022-07-29T02:16:00.910Z,1.87
2022-07-29T02:18:32.228Z,1.42
2022-07-29T02:21:03.238Z,1.85
2022-07-29T02:25:42.889Z,1.50
2022-07-29T02:28:13.556Z,1.95
2022-07-29T02:30:45.525Z,1.67
2022-07-29T02:33:18.252Z,1.60
2022-07-29T02:35:49.941Z,1.57
2022-07-29T02:38:40.279Z,1.55
2022-07-29T02:41:19.138Z,1.80
2022-07-29T02:43:51.633Z,1.75
2022-07-29T02:46:29.121Z,1.72
2022-07-29T02:49:10.733Z,1.80
2022-07-29T02:51:55.050Z,1.95
2022-07-29T02:54:42.521Z,2.12
2022-07-29T02:57:24.104Z,1.82
2022-07-29T02:59:56.632Z,1.87
2022-07-29T03:02:28.821Z,2.00
2022-07-29T03:05:01.482Z,1.90
2022-07-29T03:07:33.493Z,1.55
2022-07-29T03:10:05.237Z,2.08
2022-07-29T03:12:37.266Z,1.90
2022-07-29T03:15:09.376Z,1.98
2022-07-29T03:17:40.056Z,1.73
2022-07-29T03:20:10.918Z,1.65
2022-07-29T03:22:44.811Z,1.95
2022-07-29T03:25:16.880Z,1.67
2022-07-29T03:27:48.975Z,1.50
2022-07-29T03:30:22.149Z,1.57
2022-07-29T03:32:51.826Z,1.82
2022-07-29T03:35:22.379Z,2.05
2022-07-29T03:37:51.962Z,2.08
2022-07-29T03:40:36.635Z,1.98
2022-07-29T03:43:08.013Z,1.80
2022-07-29T03:45:38.239Z,1.62
2022-07-29T03:48:10.749Z,1.65
2022-07-29T03:50:40.359Z,1.80
2022-07-29T03:53:10.742Z,1.70
2022-07-29T03:55:43.545Z,1.80
2022-07-29T04:00:45.492Z,1.60
2022-07-29T04:03:16.346Z,1.62
2022-07-29T04:05:46.019Z,1.60
2022-07-29T04:08:15.567Z,2.00
2022-07-29T04:10:45.016Z,1.62
2022-07-29T04:13:14.490Z,2.05
2022-07-29T04:15:44.836Z,2.12
2022-07-29T04:18:14.463Z,1.90
2022-07-29T04:20:44.054Z,2.00
2022-07-29T04:23:13.554Z,1.72
2022-07-29T04:25:44.045Z,2.10
2022-07-29T04:28:13.644Z,1.57
2022-07-29T04:30:43.154Z,1.90
2022-07-29T04:33:13.415Z,1.75
2022-07-29T04:35:49.736Z,1.70
2022-07-29T04:38:17.228Z,2.00
2022-07-29T04:40:45.066Z,1.80
2022-07-29T04:43:15.511Z,1.80
2022-07-29T04:45:46.247Z,2.20
2022-07-29T04:48:15.905Z,1.70
2022-07-29T04:50:45.342Z,1.40
2022-07-29T04:53:14.865Z,2.08
2022-07-29T04:55:44.543Z,2.30
2022-07-29T04:58:14.361Z,1.70
2022-07-29T05:00:43.909Z,1.87
2022-07-29T05:03:13.464Z,1.72
2022-07-29T05:05:43.837Z,2.22
2022-07-29T05:08:13.508Z,2.12
2022-07-29T05:10:43.270Z,1.80
2022-07-29T05:13:12.720Z,1.90
2022-07-29T05:15:42.330Z,2.00
2022-07-29T05:18:11.871Z,2.75
2022-07-29T05:20:41.315Z,3.33
2022-07-29T05:23:12.396Z,2.75
2022-07-29T05:25:44.232Z,2.22
2022-07-29T05:28:14.327Z,2.58
2022-07-29T05:30:45.759Z,2.72
2022-07-29T05:33:34.694Z,2.10
2022-07-29T05:35:46.275Z,2.60
2022-07-29T05:38:15.721Z,2.40
2022-07-29T05:40:45.153Z,2.20
2022-07-29T05:43:14.732Z,2.60
2022-07-29T05:45:49.768Z,3.22
2022-07-29T05:48:15.395Z,2.30
2022-07-29T05:50:45.044Z,2.27
2022-07-29T05:53:20.039Z,2.67
2022-07-29T05:55:50.309Z,2.85
2022-07-29T05:58:19.892Z,3.10
2022-07-29T06:00:49.498Z,2.85
2022-07-29T06:03:19.028Z,2.70
2022-07-29T06:05:48.513Z,3.25
2022-07-29T06:08:18.714Z,2.83
2022-07-29T06:10:48.870Z,2.70
2022-07-29T06:13:18.381Z,2.47
2022-07-29T06:15:47.980Z,3.00
2022-07-29T06:18:17.470Z,3.27
2022-07-29T06:20:47.173Z,2.90
2022-07-29T06:23:16.619Z,3.22
2022-07-29T06:25:46.939Z,2.80
2022-07-29T06:28:16.403Z,2.98
2022-07-29T06:30:46.052Z,2.92
2022-07-29T06:33:20.913Z,3.02
2022-07-29T06:35:55.181Z,2.70
2022-07-29T06:38:31.140Z,2.67
2022-07-29T06:41:02.141Z,3.27
2022-07-29T06:43:50.405Z,2.98
2022-07-29T06:46:12.947Z,2.87
2022-07-29T06:48:44.175Z,3.00
2022-07-29T06:51:13.859Z,3.45
2022-07-29T06:53:58.427Z,2.87
2022-07-29T06:56:15.497Z,3.55
2022-07-29T06:58:45.892Z,2.95
2022-07-29T07:01:15.509Z,3.17
2022-07-29T07:03:45.194Z,3.08
2022-07-29T07:06:15.238Z,2.77
2022-07-29T07:08:45.348Z,3.15
2022-07-29T07:11:14.788Z,3.15
2022-07-29T07:13:44.298Z,3.05
2022-07-29T07:16:13.925Z,2.60
2022-07-29T07:18:43.411Z,3.22
2022-07-29T07:21:18.758Z,2.70
2022-07-29T07:23:44.876Z,3.27
2022-07-29T07:26:14.386Z,3.15
2022-07-29T07:28:43.905Z,3.12
2022-07-29T07:31:14.194Z,3.15
2022-07-29T07:33:43.767Z,2.98
2022-07-29T07:36:13.491Z,2.98
2022-07-29T07:38:42.924Z,2.80
2022-07-29T07:41:12.633Z,2.95
2022-07-29T07:43:42.678Z,3.02
2022-07-29T07:46:12.193Z,3.72
2022-07-29T07:48:41.814Z,2.98
2022-07-29T07:51:11.294Z,3.50
2022-07-29T07:53:40.944Z,3.67
2022-07-29T07:56:12.133Z,3.27
2022-07-29T07:58:42.057Z,2.90
2022-07-29T08:01:12.713Z,3.08
2022-07-29T08:03:42.292Z,2.98
2022-07-29T08:06:11.812Z,2.62
2022-07-29T08:08:41.285Z,3.00
2022-07-29T08:11:10.717Z,2.85
2022-07-29T08:13:41.922Z,3.37
2022-07-29T08:16:16.720Z,2.95
2022-07-29T08:18:47.976Z,2.77
2022-07-29T08:21:17.964Z,2.98
2022-07-29T08:23:57.650Z,2.62
2022-07-29T08:26:23.851Z,3.05
2022-07-29T08:28:53.295Z,3.17
2022-07-29T08:31:22.962Z,3.00
2022-07-29T08:33:52.975Z,3.10
2022-07-29T08:36:23.826Z,3.20
2022-07-29T08:38:53.640Z,3.45
2022-07-29T08:41:23.879Z,2.80
2022-07-29T08:43:54.040Z,2.87
2022-07-29T08:46:23.673Z,3.02
2022-07-29T08:48:53.980Z,2.95
2022-07-29T08:51:25.865Z,2.90
2022-07-29T08:53:56.731Z,3.27
2022-07-29T08:56:27.308Z,3.15
2022-07-29T08:58:58.687Z,2.70
2022-07-29T09:01:35.959Z,3.67
2022-07-29T09:04:05.951Z,3.50
2022-07-29T09:09:06.867Z,2.75
2022-07-29T09:11:36.657Z,3.08
2022-07-29T09:14:07.107Z,3.22
2022-07-29T09:16:54.823Z,2.70
2022-07-29T09:19:35.313Z,3.80
2022-07-29T09:22:10.759Z,2.87
2022-07-29T09:24:43.356Z,3.47
2022-07-29T09:27:27.130Z,3.37
2022-07-29T09:30:06.490Z,3.05
2022-07-29T09:32:39.350Z,3.08
2022-07-29T09:35:24.808Z,3.58
2022-07-29T09:37:54.816Z,3.20
2022-07-29T09:40:26.780Z,3.47
2022-07-29T09:42:58.783Z,3.47
2022-07-29T09:45:38.728Z,3.33
2022-07-29T09:48:20.647Z,3.22
2022-07-29T09:50:52.187Z,3.20
2022-07-29T09:53:38.757Z,3.87
2022-07-29T09:56:09.630Z,3.62
2022-07-29T09:58:39.235Z,3.67
2022-07-29T10:01:08.886Z,3.50
2022-07-29T10:03:57.099Z,3.52
2022-07-29T10:06:26.609Z,3.10
2022-07-29T10:08:56.822Z,3.62
2022-07-29T10:11:26.326Z,3.72
2022-07-29T10:13:57.664Z,3.30
2022-07-29T10:16:28.960Z,3.70
2022-07-29T10:18:59.144Z,3.97
2022-07-29T10:21:35.569Z,3.20
2022-07-29T10:24:01.767Z,3.58
2022-07-29T10:26:32.573Z,3.40
2022-07-29T10:29:04.630Z,2.87
2022-07-29T10:31:40.685Z,3.45
2022-07-29T10:34:29.823Z,3.15
2022-07-29T10:37:11.212Z,2.65
2022-07-29T10:39:45.131Z,2.47
2022-07-29T10:42:29.538Z,2.55
2022-07-29T10:44:58.028Z,2.80
2022-07-29T10:50:03.843Z,2.27
2022-07-29T10:52:54.720Z,2.75
2022-07-29T10:55:43.917Z,2.42
2022-07-29T10:58:21.454Z,2.98
2022-07-29T11:00:53.794Z,1.67
2022-07-29T11:03:50.553Z,1.90
2022-07-29T11:06:14.744Z,1.92
2022-07-29T11:08:45.425Z,2.00
2022-07-29T11:11:30.987Z,1.90
2022-07-29T11:14:02.168Z,1.92
2022-07-29T11:16:34.677Z,2.02
2022-07-29T11:19:26.375Z,1.50
2022-07-29T11:24:30.108Z,2.45
2022-07-29T11:27:18.067Z,2.40
2022-07-29T11:29:58.596Z,2.25
2022-07-29T11:32:32.236Z,2.45
2022-07-29T11:35:37.154Z,2.37
2022-07-29T11:38:17.578Z,2.08
2022-07-29T11:41:08.665Z,2.40
2022-07-29T11:43:52.763Z,2.10
2022-07-29T11:46:50.930Z,2.25
2022-07-29T11:49:32.303Z,1.82
2022-07-29T11:52:01.332Z,2.10
2022-07-29T11:54:52.524Z,2.05
2022-07-29T11:57:09.881Z,1.85
2022-07-29T11:59:44.633Z,2.15
2022-07-29T12:02:36.630Z,2.35
2022-07-29T12:04:55.439Z,2.10
2022-07-29T12:07:35.282Z,2.55
2022-07-29T12:10:07.285Z,2.02
2022-07-29T12:12:40.000Z,2.22
2022-07-29T12:15:20.303Z,1.90
2022-07-29T12:17:50.869Z,2.12
2022-07-29T12:20:26.581Z,2.55
2022-07-29T12:22:58.219Z,2.00
2022-07-29T12:25:34.987Z,2.50
2022-07-29T12:28:04.729Z,2.08
2022-07-29T12:30:41.522Z,2.00
2022-07-29T12:33:21.451Z,1.95
2022-07-29T12:36:06.240Z,2.40
2022-07-29T12:38:25.308Z,1.80
2022-07-29T12:40:56.046Z,2.05
2022-07-29T12:43:27.080Z,1.82
2022-07-29T12:45:58.944Z,1.82
2022-07-29T12:48:45.613Z,2.03
2022-07-29T12:51:16.999Z,1.80
2022-07-29T12:54:08.369Z,1.90
2022-07-29T12:56:44.148Z,2.30
2022-07-29T12:59:19.409Z,2.08
2022-07-29T13:01:50.632Z,1.90
2022-07-29T13:04:32.294Z,1.70
2022-07-29T13:07:08.377Z,1.63
2022-07-29T13:09:42.183Z,1.60
2022-07-29T13:12:14.507Z,1.72
2022-07-29T22:27:35.362Z,2.35
2022-07-29T22:30:07.115Z,2.30
2022-07-29T22:32:40.441Z,2.52
2022-07-29T22:35:10.919Z,2.40
2022-07-29T22:37:40.588Z,2.30
2022-07-29T22:40:10.360Z,3.05
2022-07-29T22:42:40.893Z,2.77
2022-07-29T22:45:11.999Z,2.42
2022-07-29T22:48:14.706Z,2.67
2022-07-29T22:50:44.352Z,2.93
2022-07-29T22:53:13.909Z,2.50
2022-07-29T22:55:43.404Z,2.83
2022-07-29T22:58:13.723Z,2.70
2022-07-29T23:00:43.346Z,2.92
2022-07-29T23:03:12.796Z,2.60
2022-07-29T23:05:42.426Z,3.00
2022-07-29T23:08:11.930Z,2.60
2022-07-29T23:10:41.864Z,2.60
2022-07-29T23:13:11.539Z,2.35
2022-07-29T23:15:41.226Z,2.95
2022-07-29T23:18:11.668Z,2.58
2022-07-29T23:20:41.220Z,2.77
2022-07-29T23:23:10.842Z,2.45
2022-07-29T23:25:40.403Z,2.50
2022-07-29T23:28:11.518Z,2.30
2022-07-29T23:30:42.536Z,2.60
2022-07-29T23:33:12.239Z,2.40
2022-07-29T23:35:42.292Z,3.33
2022-07-29T23:38:12.499Z,2.40
2022-07-29T23:40:41.942Z,2.50
2022-07-29T23:43:11.507Z,2.83
2022-07-29T23:45:44.917Z,2.72
2022-07-29T23:48:12.262Z,2.25
2022-07-29T23:50:41.898Z,2.25
2022-07-29T23:53:12.358Z,2.30
2022-07-29T23:55:41.899Z,2.50
2022-07-29T23:58:11.420Z,2.40
